Currently N/A°F in Riverside (Canyon Crest), California, USA
N/A°F Alert
N/A°F / N/A°F
N/A
N/A
Sunday, January 22, 2017 4:14 AM PST

Riverside (Canyon Crest), California Weather Summary
Last 36 Hours

Temperature Winds Hourly Humidity Dewpoint
Time Report Norm Report Norm Max Gusts Precip. Rpt. Norm Rpt. Norm Pressure
1,2Thu 12:53 PM  70.1°F  77°F  7 mph SW  4 mph  10 mph  0.00"  77%  61%  62°F  62°F  N/A
Thu 12:00 PM  68.8°F  75°F  3 mph NW  3 mph  9 mph  0.00"  76%  66%  61°F  62°F  N/A
Thu 11:00 AM  66.5°F  71°F  5 mph W  3 mph  8 mph  0.00"  83%  73%  61°F  62°F  N/A
Thu 10:00 AM  66.8°F  68°F  5 mph SE  2 mph  12 mph  0.00"  81%  81%  61°F  62°F  N/A
Thu 09:00 AM  64.1°F  64°F  8 mph SE  2 mph  11 mph  0.00"  89%  88%  61°F  61°F  N/A
Thu 08:00 AM  61.6°F  61°F  6 mph S  1 mph  12 mph  0.00"  97%  93%  61°F  59°F  N/A
3Thu 07:11 AM  59.9°F  60°F  7 mph S  1 mph  12 mph  ----  100%  95%  60°F  58°F  N/A
Thu 07:00 AM  60.1°F  59°F  7 mph S  1 mph  11 mph  0.00"  100%  95%  60°F  58°F  N/A
Thu 06:00 AM  60.7°F  58°F  5 mph S  1 mph  7 mph  0.00"  100%  96%  61°F  57°F  N/A
Thu 05:00 AM  61.0°F  59°F  4 mph SE  1 mph  7 mph  0.00"  100%  95%  61°F  57°F  N/A
Thu 04:00 AM  60.7°F  59°F  3 mph SW  1 mph  6 mph  0.00"  100%  95%  61°F  58°F  N/A
Thu 03:00 AM  60.7°F  60°F  3 mph NW  1 mph  6 mph  0.00"  100%  94%  61°F  58°F  N/A
Thu 02:00 AM  60.6°F  61°F  4 mph NW  1 mph  7 mph  0.00"  100%  92%  61°F  59°F  N/A
Thu 01:00 AM  60.6°F  62°F  4 mph NW  1 mph  8 mph  0.00"  100%  91%  61°F  59°F  N/A
Thu 12:00 AM  61.0°F  63°F  6 mph W  1 mph  8 mph  0.00"  100%  88%  61°F  59°F  N/A
Wed 11:00 PM  61.5°F  65°F  2 mph NW  1 mph  9 mph  0.00"  100%  85%  61°F  60°F  N/A
Wed 10:00 PM  63.1°F  66°F  4 mph NW  1 mph  8 mph  0.00"  96%  82%  62°F  60°F  N/A
Wed 09:00 PM  65.8°F  68°F  4 mph NW  2 mph  10 mph  0.00"  87%  77%  62°F  60°F  N/A
Wed 08:00 PM  68.2°F  71°F  3 mph W  3 mph  13 mph  0.00"  79%  71%  61°F  61°F  N/A
Wed 07:00 PM  72.1°F  75°F  7 mph NW  4 mph  14 mph  0.00"  69%  64%  61°F  61°F  N/A
Wed 06:00 PM  76.4°F  78°F  8 mph NW  5 mph  16 mph  0.00"  61%  59%  61°F  62°F  N/A
Wed 05:00 PM  76.6°F  80°F  6 mph NW  6 mph  13 mph  0.00"  61%  55%  62°F  62°F  N/A
Wed 04:00 PM  76.7°F  81°F  5 mph W  6 mph  12 mph  0.00"  62%  53%  63°F  62°F  N/A
Wed 03:00 PM  74.9°F  82°F  6 mph W  5 mph  13 mph  0.00"  66%  52%  62°F  62°F  N/A
Wed 02:00 PM  73.7°F  80°F  4 mph NW  5 mph  13 mph  0.00"  68%  54%  62°F  62°F  N/A
Wed 01:00 PM  70.4°F  78°F  7 mph W  4 mph  15 mph  0.00"  74%  58%  61°F  62°F  N/A
Wed 12:00 PM  69.5°F  75°F  7 mph W  4 mph  10 mph  0.00"  74%  64%  61°F  62°F  N/A
Wed 11:00 AM  67.0°F  72°F  2 mph S  3 mph  12 mph  0.00"  81%  72%  61°F  62°F  N/A
Wed 10:00 AM  65.4°F  68°F  6 mph S  2 mph  15 mph  0.00"  85%  80%  61°F  61°F  N/A
Wed 09:00 AM  62.6°F  64°F  8 mph SE  2 mph  17 mph  0.00"  94%  87%  61°F  60°F  N/A
Wed 08:00 AM  61.0°F  61°F  9 mph SE  1 mph  14 mph  0.00"  98%  92%  60°F  59°F  N/A
Wed 07:00 AM  60.3°F  59°F  4 mph S  1 mph  10 mph  0.00"  100%  95%  60°F  57°F  N/A
Wed 06:00 AM  60.1°F  58°F  4 mph S  1 mph  7 mph  0.00"  100%  95%  60°F  57°F  N/A
Wed 05:00 AM  59.4°F  59°F  3 mph S  1 mph  6 mph  0.00"  100%  95%  59°F  57°F  N/A
Wed 04:00 AM  59.4°F  59°F  calm  1 mph  none  0.00"  100%  94%  59°F  57°F  N/A
Wed 03:00 AM  59.3°F  60°F  calm  1 mph  5 mph  0.00"  100%  93%  59°F  58°F  N/A
Wed 02:00 AM  59.4°F  61°F  2 mph W  1 mph  4 mph  0.00"  100%  92%  59°F  58°F  N/A
Wed 01:00 AM  61.0°F  62°F  calm  1 mph  4 mph  0.00"  100%  90%  61°F  59°F  N/A

  1. Current weather data. No green row appears if the current weather data is also the high or low for the current day.
  2. High temperature for the current day.
  3. Low temperature for the current day.

The Riverside (Canyon Crest), California weather pages are a service of WeatherCurrents.
Copyright ©Sun Jan 22 04:14:16 PST 2017  WeatherCurrents. All rights reserved. - Submit questions and comments - Privacy Policy

This page automatically refreshes every 10 minutes.